aviador You're here:

SKSP Decoded Metar

SAN ANDRES ISLAND in COLOMBIA
Report Time2017-11-20 22:00:00
UTC Time2017-11-20 23:00:21
Flight Rules vfr VFR
Wind350° at 06 kt
W.Decomp.*RWY 06: 2.2 kt HW 5.6 kt LCW
W.Rank350° ranks 15
Current wind is below 350° avg. (7.2)
Visibility9999 m
Phenomena:N/A
Clouds:Few 018 Hf
Expected CloudBase > 2,000 ft AGL from Temp-Dew spread
CeilingNone
Temp29°C (ISA +14)
Dew Point24°C (74% RH)
Heat Index33.5°C
QNH1009 hPa
Density Alt2,126 ft
Elevation-7 ft
Report Wrong Elevation
Raw Report
METAR SKSP 202200Z 35006KT 340V030 9999 FEW018 29/24 A2979=

Extra information for SKSP:More info

Metar Taf Metar & Taf Last 4 Metars F.Rules Stats Wind Profile Meteogram Temp Stats Airport Information Weather charts Add Link Nearby VenuesMetar ALERT Operation Metar Decoded Social comments